Time;durP1;ratioP1;P1;durP2;ratioP2;P2;SDS_P1;SDS_P2;PMS_P1;PMS_P2;Temp;Humidity;BMP_temperature;BMP_pressure;BME280_temperature;BME280_humidity;BME280_pressure;Samples;Min_cycle;Max_cycle;Signal;HPM_P1;HPM_P2
2022/03/02 00:01:16;;;;;;;;;;;16.70;44.50;;;;;;5093069;28;19916;-63
2022/03/02 00:03:42;;;;;;;;;;;16.70;44.50;;;;;;5089786;28;19958;-63
2022/03/02 00:06:09;;;;;;;;;;;16.70;44.60;;;;;;5090546;28;20280;-63
2022/03/02 00:08:34;;;;;;;;;;;16.70;44.60;;;;;;5090856;28;19912;-63
2022/03/02 00:11:00;;;;;;;;;;;16.70;44.70;;;;;;5091269;28;19916;-63
2022/03/02 00:13:25;;;;;;;;;;;16.70;44.80;;;;;;5091159;28;20372;-63
2022/03/02 00:15:51;;;;;;;;;;;16.70;44.90;;;;;;5092785;28;19951;-63
2022/03/02 00:18:16;;;;;;;;;;;16.70;44.90;;;;;;5075259;28;20023;-63
2022/03/02 00:20:42;;;;;;;;;;;16.70;44.90;;;;;;5087979;28;20332;-63
2022/03/02 00:23:07;;;;;;;;;;;16.70;44.80;;;;;;5077696;28;19944;-63
2022/03/02 00:25:32;;;;;;;;;;;16.70;44.80;;;;;;5093034;28;20110;-63
2022/03/02 00:27:58;;;;;;;;;;;16.70;44.90;;;;;;5090612;28;19923;-63
2022/03/02 00:30:26;;;;;;;;;;;16.70;44.90;;;;;;5089753;28;20381;-63
2022/03/02 00:32:52;;;;;;;;;;;16.70;44.80;;;;;;5087735;28;19931;-63
2022/03/02 00:35:17;;;;;;;;;;;16.70;44.90;;;;;;5074558;28;20393;-63
2022/03/02 00:37:43;;;;;;;;;;;16.70;44.90;;;;;;5070965;28;20377;-63
2022/03/02 00:40:08;;;;;;;;;;;16.70;44.90;;;;;;5090382;28;20338;-63
2022/03/02 00:42:34;;;;;;;;;;;16.70;44.90;;;;;;5091123;28;19926;-63
2022/03/02 00:44:59;;;;;;;;;;;16.70;44.90;;;;;;5073546;28;20369;-63
2022/03/02 00:47:25;;;;;;;;;;;16.70;44.90;;;;;;5089627;28;19921;-63
2022/03/02 00:49:50;;;;;;;;;;;16.70;44.90;;;;;;5089222;28;19912;-63
2022/03/02 00:52:15;;;;;;;;;;;16.70;44.90;;;;;;5091859;28;19908;-63
2022/03/02 00:54:41;;;;;;;;;;;16.70;45.00;;;;;;5094556;28;19909;-63
2022/03/02 00:57:06;;;;;;;;;;;16.70;45.00;;;;;;5095304;28;19912;-63
2022/03/02 00:59:32;;;;;;;;;;;16.60;45.00;;;;;;5082065;28;19947;-63
2022/03/02 01:01:58;;;;;;;;;;;16.60;45.00;;;;;;5074832;28;19920;-63
2022/03/02 01:04:23;;;;;;;;;;;16.60;45.00;;;;;;5077741;28;19962;-63
2022/03/02 01:06:48;;;;;;;;;;;16.60;45.10;;;;;;5076025;28;19916;-63
2022/03/02 01:09:14;;;;;;;;;;;16.60;45.20;;;;;;5079037;28;19916;-62
2022/03/02 01:11:39;;;;;;;;;;;16.50;45.20;;;;;;5095088;28;20264;-62
2022/03/02 01:14:05;;;;;;;;;;;16.50;45.30;;;;;;5093113;28;19912;-63
2022/03/02 01:16:30;;;;;;;;;;;16.50;45.30;;;;;;5093034;28;19935;-63
2022/03/02 01:18:56;;;;;;;;;;;16.50;45.20;;;;;;5083170;28;19916;-63
2022/03/02 01:21:21;;;;;;;;;;;16.50;45.20;;;;;;5075864;28;19916;-63
2022/03/02 01:23:47;;;;;;;;;;;16.50;45.20;;;;;;5084688;28;19987;-63
2022/03/02 01:26:12;;;;;;;;;;;16.60;45.20;;;;;;5096276;28;19923;-63
2022/03/02 01:28:38;;;;;;;;;;;16.60;45.20;;;;;;5093760;28;19965;-63
2022/03/02 01:31:03;;;;;;;;;;;16.60;45.10;;;;;;5094596;28;20330;-63
2022/03/02 01:33:29;;;;;;;;;;;16.70;45.10;;;;;;5094084;28;20006;-63
2022/03/02 01:35:54;;;;;;;;;;;16.70;45.00;;;;;;5077640;28;19954;-63
2022/03/02 01:38:20;;;;;;;;;;;16.70;44.80;;;;;;5093585;28;20476;-63
2022/03/02 01:40:46;;;;;;;;;;;16.80;44.80;;;;;;5080367;28;19939;-63
2022/03/02 01:43:11;;;;;;;;;;;16.80;44.80;;;;;;5078448;28;19916;-63
2022/03/02 01:45:37;;;;;;;;;;;16.80;44.80;;;;;;5095579;28;19913;-64
2022/03/02 01:48:03;;;;;;;;;;;16.80;44.70;;;;;;5093721;28;19969;-63
2022/03/02 01:50:28;;;;;;;;;;;16.80;44.80;;;;;;5094359;28;20380;-63
2022/03/02 01:52:54;;;;;;;;;;;16.80;44.80;;;;;;5092979;28;20372;-63
2022/03/02 01:55:19;;;;;;;;;;;16.80;44.80;;;;;;5094411;28;19969;-63
2022/03/02 01:57:45;;;;;;;;;;;16.80;44.70;;;;;;5091994;28;19924;-64
2022/03/02 02:00:11;;;;;;;;;;;16.90;44.80;;;;;;5090855;28;20440;-63
2022/03/02 02:02:37;;;;;;;;;;;16.90;44.70;;;;;;5077541;28;20045;-63
2022/03/02 02:05:02;;;;;;;;;;;16.90;44.70;;;;;;5072815;28;20010;-63
2022/03/02 02:07:28;;;;;;;;;;;16.90;44.70;;;;;;5075223;28;19920;-63
2022/03/02 02:09:55;;;;;;;;;;;16.90;44.60;;;;;;5077151;28;19919;-63
2022/03/02 02:12:21;;;;;;;;;;;16.90;44.60;;;;;;5090510;28;19962;-63
2022/03/02 02:14:46;;;;;;;;;;;17.00;44.60;;;;;;5090695;28;19951;-63
2022/03/02 02:17:11;;;;;;;;;;;17.00;44.60;;;;;;5074883;28;19908;-63
2022/03/02 02:19:37;;;;;;;;;;;17.00;44.60;;;;;;5090032;28;19917;-63
2022/03/02 02:22:02;;;;;;;;;;;17.00;44.50;;;;;;5087298;28;19912;-63
2022/03/02 02:24:28;;;;;;;;;;;17.00;44.50;;;;;;5092934;28;20011;-63
2022/03/02 02:26:53;;;;;;;;;;;17.10;44.50;;;;;;5079711;28;19958;-63
2022/03/02 02:29:19;;;;;;;;;;;17.10;44.40;;;;;;5091391;28;20024;-63
2022/03/02 02:31:44;;;;;;;;;;;17.30;44.30;;;;;;5091936;28;20404;-62
2022/03/02 02:34:10;;;;;;;;;;;17.40;44.10;;;;;;5076706;28;20425;-63
2022/03/02 02:36:36;;;;;;;;;;;17.60;43.80;;;;;;5074827;28;20437;-63
2022/03/02 02:39:01;;;;;;;;;;;17.80;43.50;;;;;;5100266;28;19915;-63
2022/03/02 02:41:27;;;;;;;;;;;18.00;43.00;;;;;;5104575;28;20269;-63
2022/03/02 02:43:52;;;;;;;;;;;18.20;42.90;;;;;;5073001;28;19947;-63
2022/03/02 02:46:18;;;;;;;;;;;18.40;42.50;;;;;;5075425;28;19908;-63
2022/03/02 02:48:43;;;;;;;;;;;18.60;42.30;;;;;;5089693;28;19922;-63
2022/03/02 02:51:09;;;;;;;;;;;18.70;42.20;;;;;;5081726;28;19912;-63
2022/03/02 02:53:34;;;;;;;;;;;18.80;42.20;;;;;;5093922;28;19951;-63
2022/03/02 02:56:00;;;;;;;;;;;18.90;42.20;;;;;;5089460;28;19931;-63
2022/03/02 02:58:25;;;;;;;;;;;18.90;42.00;;;;;;5094105;28;20257;-63
2022/03/02 03:00:51;;;;;;;;;;;19.00;41.90;;;;;;5091064;28;19916;-63
2022/03/02 03:03:16;;;;;;;;;;;19.10;41.90;;;;;;5092910;28;19919;-63
2022/03/02 03:05:44;;;;;;;;;;;19.10;41.80;;;;;;5092465;28;19954;-63
2022/03/02 03:08:10;;;;;;;;;;;19.20;41.90;;;;;;5093820;28;19947;-63
2022/03/02 03:10:35;;;;;;;;;;;19.20;41.90;;;;;;5083424;28;19959;-63
2022/03/02 03:13:01;;;;;;;;;;;19.10;41.80;;;;;;5084856;28;19951;-64
2022/03/02 03:15:27;;;;;;;;;;;19.10;41.90;;;;;;5072059;28;19908;-63
2022/03/02 03:17:52;;;;;;;;;;;19.10;41.90;;;;;;5074732;28;20364;-63
2022/03/02 03:20:21;;;;;;;;;;;19.10;41.90;;;;;;5088972;28;20041;-63
2022/03/02 03:22:46;;;;;;;;;;;19.10;41.90;;;;;;5078394;28;19912;-63
2022/03/02 03:25:12;;;;;;;;;;;19.20;41.90;;;;;;5092508;28;19957;-63
2022/03/02 03:27:38;;;;;;;;;;;19.20;41.90;;;;;;5086887;28;19911;-63
2022/03/02 03:30:04;;;;;;;;;;;19.20;41.90;;;;;;5093601;28;19915;-63
2022/03/02 03:32:30;;;;;;;;;;;19.20;41.90;;;;;;5072710;28;20372;-63
2022/03/02 03:34:56;;;;;;;;;;;19.30;41.80;;;;;;5093563;28;19919;-63
2022/03/02 03:37:22;;;;;;;;;;;19.30;41.80;;;;;;5078487;28;19919;-63
2022/03/02 03:39:47;;;;;;;;;;;19.40;41.70;;;;;;5088813;28;19909;-63
2022/03/02 03:42:13;;;;;;;;;;;19.30;41.60;;;;;;5092443;28;19919;-63
2022/03/02 03:44:38;;;;;;;;;;;19.20;41.70;;;;;;5093304;28;19918;-63
2022/03/02 03:47:04;;;;;;;;;;;19.10;41.90;;;;;;5089833;28;19963;-63
2022/03/02 03:49:29;;;;;;;;;;;19.00;42.10;;;;;;5092020;28;19912;-63
2022/03/02 03:51:55;;;;;;;;;;;18.90;42.20;;;;;;5074875;28;19912;-63
2022/03/02 03:54:20;;;;;;;;;;;18.90;42.50;;;;;;5072586;28;19912;-63
2022/03/02 03:56:46;;;;;;;;;;;18.80;42.50;;;;;;5075883;28;19965;-63
2022/03/02 03:59:11;;;;;;;;;;;18.90;42.50;;;;;;5093177;28;19908;-63
2022/03/02 04:01:37;;;;;;;;;;;18.90;42.50;;;;;;5084461;28;19917;-63
2022/03/02 04:04:02;;;;;;;;;;;19.00;42.40;;;;;;5073610;28;19995;-63
2022/03/02 04:06:27;;;;;;;;;;;19.10;42.30;;;;;;5071717;28;19957;-63
2022/03/02 04:08:53;;;;;;;;;;;19.20;42.30;;;;;;5072431;28;19912;-63
2022/03/02 04:11:18;;;;;;;;;;;19.30;42.20;;;;;;5072882;28;19912;-63
2022/03/02 04:13:44;;;;;;;;;;;19.30;42.00;;;;;;5088361;28;19912;-63
2022/03/02 04:16:09;;;;;;;;;;;19.40;41.90;;;;;;5076363;28;20357;-63
2022/03/02 04:18:35;;;;;;;;;;;19.40;41.90;;;;;;5070917;28;20016;-63
2022/03/02 04:21:00;;;;;;;;;;;19.40;41.80;;;;;;5076316;28;19970;-63
2022/03/02 04:23:26;;;;;;;;;;;19.40;41.80;;;;;;5072125;28;19912;-63
2022/03/02 04:25:52;;;;;;;;;;;19.40;41.80;;;;;;5087999;28;19984;-63
2022/03/02 04:28:17;;;;;;;;;;;19.50;41.80;;;;;;5087367;28;19912;-63
2022/03/02 04:30:43;;;;;;;;;;;19.50;41.70;;;;;;5088034;28;20376;-63
2022/03/02 04:33:08;;;;;;;;;;;19.50;41.80;;;;;;5090831;28;20432;-63
2022/03/02 04:35:34;;;;;;;;;;;19.50;41.80;;;;;;5085657;28;20214;-63
2022/03/02 04:38:00;;;;;;;;;;;19.60;41.80;;;;;;5084121;28;19976;-63
2022/03/02 04:40:25;;;;;;;;;;;19.60;41.70;;;;;;5090232;28;19956;-63
2022/03/02 04:42:51;;;;;;;;;;;19.60;41.70;;;;;;5087686;28;19962;-63
2022/03/02 04:45:17;;;;;;;;;;;19.70;41.70;;;;;;5072473;28;19912;-63
2022/03/02 04:47:42;;;;;;;;;;;19.70;41.70;;;;;;5072197;28;19909;-63
2022/03/02 04:50:08;;;;;;;;;;;19.60;41.50;;;;;;5073981;28;19920;-63
2022/03/02 04:52:34;;;;;;;;;;;19.70;41.60;;;;;;5087001;28;19908;-63
2022/03/02 04:55:06;;;;;;;;;;;19.70;41.60;;;;;;5090189;28;20261;-63
2022/03/02 04:57:39;;;;;;;;;;;19.80;41.60;;;;;;5092350;28;20005;-63
2022/03/02 05:00:06;;;;;;;;;;;19.70;41.60;;;;;;5090608;28;19916;-63
2022/03/02 05:02:31;;;;;;;;;;;19.70;41.60;;;;;;5074142;28;19919;-63
2022/03/02 05:04:57;;;;;;;;;;;19.70;41.60;;;;;;5071573;28;19908;-63
2022/03/02 05:07:22;;;;;;;;;;;19.70;41.60;;;;;;5091075;28;19912;-63
2022/03/02 05:09:48;;;;;;;;;;;19.80;41.70;;;;;;5089105;28;19908;-63
2022/03/02 05:12:13;;;;;;;;;;;19.80;41.70;;;;;;5075763;28;19916;-63
2022/03/02 05:14:39;;;;;;;;;;;19.80;41.70;;;;;;5070487;28;19980;-63
2022/03/02 05:17:05;;;;;;;;;;;19.80;41.70;;;;;;5072862;28;19916;-63
2022/03/02 05:19:31;;;;;;;;;;;19.80;41.60;;;;;;5087227;28;19956;-63
2022/03/02 05:21:56;;;;;;;;;;;19.80;41.60;;;;;;5071791;28;20355;-63
2022/03/02 05:24:22;;;;;;;;;;;19.80;41.50;;;;;;5088049;28;19916;-63
2022/03/02 05:26:47;;;;;;;;;;;19.80;41.50;;;;;;5091967;28;19909;-63
2022/03/02 05:29:12;;;;;;;;;;;19.80;41.60;;;;;;5078454;28;19995;-63
2022/03/02 05:31:38;;;;;;;;;;;19.90;41.60;;;;;;5071819;28;19916;-63
2022/03/02 05:34:03;;;;;;;;;;;19.90;41.60;;;;;;5071758;28;19917;-63
2022/03/02 05:36:29;;;;;;;;;;;19.90;41.60;;;;;;5081649;28;19916;-63
2022/03/02 05:38:54;;;;;;;;;;;19.90;42.20;;;;;;5090166;28;19915;-64
2022/03/02 05:41:20;;;;;;;;;;;19.90;41.50;;;;;;5087709;28;19960;-63
2022/03/02 05:43:46;;;;;;;;;;;20.00;41.50;;;;;;5075285;28;19919;-63
2022/03/02 05:46:11;;;;;;;;;;;20.00;41.50;;;;;;5073989;28;19912;-63
2022/03/02 05:48:37;;;;;;;;;;;19.90;41.50;;;;;;5075166;28;19915;-63
2022/03/02 05:51:02;;;;;;;;;;;20.00;41.60;;;;;;5093239;28;19919;-63
2022/03/02 05:53:28;;;;;;;;;;;20.00;41.50;;;;;;5073524;28;19962;-63
2022/03/02 05:55:53;;;;;;;;;;;19.90;41.50;;;;;;5073860;28;19919;-63
2022/03/02 05:58:19;;;;;;;;;;;20.00;41.60;;;;;;5092005;28;19919;-63
2022/03/02 06:00:44;;;;;;;;;;;20.00;41.50;;;;;;5093515;28;19961;-63
2022/03/02 06:03:10;;;;;;;;;;;20.00;41.50;;;;;;5095079;28;19908;-63
2022/03/02 06:05:35;;;;;;;;;;;20.00;41.50;;;;;;5090683;28;20449;-63
2022/03/02 06:08:01;;;;;;;;;;;20.00;41.60;;;;;;5073125;28;19916;-63
2022/03/02 06:10:26;;;;;;;;;;;20.00;41.60;;;;;;5074816;28;19920;-63
2022/03/02 06:12:52;;;;;;;;;;;20.00;41.60;;;;;;5074513;28;19908;-63
2022/03/02 06:15:17;;;;;;;;;;;20.00;41.50;;;;;;5074946;28;19913;-63
2022/03/02 06:17:43;;;;;;;;;;;20.00;41.60;;;;;;5074789;28;19961;-63
2022/03/02 06:20:09;;;;;;;;;;;20.00;41.50;;;;;;5078217;28;19920;-63
2022/03/02 06:22:34;;;;;;;;;;;20.00;41.60;;;;;;5073658;28;20364;-63
2022/03/02 06:25:00;;;;;;;;;;;20.00;41.40;;;;;;5070613;28;19930;-63
2022/03/02 06:27:25;;;;;;;;;;;20.00;41.60;;;;;;5085137;28;20439;-63
2022/03/02 06:29:51;;;;;;;;;;;20.00;41.60;;;;;;5074390;28;20022;-63
2022/03/02 06:32:16;;;;;;;;;;;20.00;41.60;;;;;;5088783;28;19912;-63
2022/03/02 06:34:42;;;;;;;;;;;20.00;41.70;;;;;;5094448;28;20414;-63
2022/03/02 06:37:07;;;;;;;;;;;20.00;41.60;;;;;;5086963;28;19916;-63
2022/03/02 06:39:33;;;;;;;;;;;20.10;41.60;;;;;;5072682;28;19915;-63
2022/03/02 06:42:02;;;;;;;;;;;20.10;41.60;;;;;;5077880;28;20429;-63
2022/03/02 06:44:30;;;;;;;;;;;20.10;41.60;;;;;;5074197;28;20359;-63
2022/03/02 06:47:02;;;;;;;;;;;20.10;41.60;;;;;;5087529;28;19962;-63
2022/03/02 06:49:28;;;;;;;;;;;20.10;41.70;;;;;;5094166;28;19912;-63
2022/03/02 06:51:58;;;;;;;;;;;20.10;41.60;;;;;;5074247;28;20372;-63
2022/03/02 06:54:27;;;;;;;;;;;20.10;41.60;;;;;;5089195;28;19962;-63
2022/03/02 06:56:53;;;;;;;;;;;20.10;41.60;;;;;;5098466;28;19926;-63
2022/03/02 06:59:20;;;;;;;;;;;20.10;41.60;;;;;;5084799;28;19913;-63
2022/03/02 07:01:45;;;;;;;;;;;20.10;41.60;;;;;;5096452;28;19917;-63
2022/03/02 07:04:12;;;;;;;;;;;20.10;41.60;;;;;;5101780;28;19912;-63
2022/03/02 07:06:38;;;;;;;;;;;20.10;41.60;;;;;;5082309;28;19912;-63
2022/03/02 07:09:03;;;;;;;;;;;20.10;41.50;;;;;;5088654;28;19919;-63
2022/03/02 07:11:29;;;;;;;;;;;20.10;41.50;;;;;;5073853;28;19916;-63
2022/03/02 07:13:54;;;;;;;;;;;20.20;41.60;;;;;;5073515;28;20349;-63
2022/03/02 07:16:23;;;;;;;;;;;20.20;41.50;;;;;;5078761;28;19945;-63
2022/03/02 07:18:50;;;;;;;;;;;20.20;41.60;;;;;;5093382;28;19912;-63
2022/03/02 07:21:16;;;;;;;;;;;20.20;41.60;;;;;;5078106;28;19925;-63
2022/03/02 07:23:42;;;;;;;;;;;20.20;41.60;;;;;;5074975;28;19908;-63
2022/03/02 07:26:08;;;;;;;;;;;20.20;41.60;;;;;;5089033;28;20015;-63
2022/03/02 07:28:35;;;;;;;;;;;20.20;41.50;;;;;;5104511;28;20441;-63
2022/03/02 07:31:01;;;;;;;;;;;20.20;41.40;;;;;;5104834;28;19966;-63
2022/03/02 07:33:26;;;;;;;;;;;20.20;41.50;;;;;;5076016;28;19912;-63
2022/03/02 07:35:55;;;;;;;;;;;20.20;41.40;;;;;;5095062;28;19913;-63
2022/03/02 07:38:21;;;;;;;;;;;20.30;41.50;;;;;;5072764;28;19939;-63
2022/03/02 07:40:48;;;;;;;;;;;20.30;41.60;;;;;;5083429;28;20384;-63
2022/03/02 07:43:14;;;;;;;;;;;20.20;41.50;;;;;;5079293;28;20652;-62
2022/03/02 07:45:39;;;;;;;;;;;20.20;41.50;;;;;;5077796;28;19913;-63
2022/03/02 07:48:05;;;;;;;;;;;20.20;41.60;;;;;;5083011;28;19958;-63
2022/03/02 07:50:30;;;;;;;;;;;20.20;41.70;;;;;;5088140;28;19916;-63
2022/03/02 07:52:56;;;;;;;;;;;20.30;41.60;;;;;;5083208;28;20004;-63
2022/03/02 07:55:21;;;;;;;;;;;20.30;41.50;;;;;;5072311;28;19912;-63
2022/03/02 07:57:51;;;;;;;;;;;20.40;41.60;;;;;;5080789;28;20288;-63
2022/03/02 08:00:16;;;;;;;;;;;20.50;41.50;;;;;;5077193;28;19920;-63
2022/03/02 08:02:42;;;;;;;;;;;20.60;41.40;;;;;;5090489;28;19908;-63
2022/03/02 08:05:07;;;;;;;;;;;20.60;41.30;;;;;;5089241;28;20490;-63
2022/03/02 08:07:34;;;;;;;;;;;20.70;41.30;;;;;;5089940;28;19908;-63
2022/03/02 08:09:59;;;;;;;;;;;20.70;41.10;;;;;;5095831;28;19912;-63
2022/03/02 08:12:25;;;;;;;;;;;20.80;41.10;;;;;;5090702;28;19934;-63
2022/03/02 08:14:51;;;;;;;;;;;20.90;41.10;;;;;;5089009;28;19912;-63
2022/03/02 08:17:17;;;;;;;;;;;20.90;40.90;;;;;;5089519;28;20356;-63
2022/03/02 08:19:42;;;;;;;;;;;20.90;40.90;;;;;;5082313;28;20333;-63
2022/03/02 08:22:10;;;;;;;;;;;21.00;40.80;;;;;;5081821;28;20030;-63
2022/03/02 08:24:41;;;;;;;;;;;21.00;40.80;;;;;;5077688;28;20273;-63
2022/03/02 08:27:07;;;;;;;;;;;21.10;40.80;;;;;;5090456;28;19908;-63
2022/03/02 08:29:32;;;;;;;;;;;21.10;40.70;;;;;;5084167;28;20327;-63
2022/03/02 08:32:00;;;;;;;;;;;21.10;40.80;;;;;;5092306;28;20000;-63
2022/03/02 08:34:26;;;;;;;;;;;21.10;40.80;;;;;;5089990;28;19919;-63
2022/03/02 08:36:51;;;;;;;;;;;21.10;40.70;;;;;;5085290;28;19912;-63
2022/03/02 08:39:17;;;;;;;;;;;21.20;40.80;;;;;;5086572;28;20365;-63
2022/03/02 08:41:43;;;;;;;;;;;21.20;40.70;;;;;;5081788;28;20428;-63
2022/03/02 08:44:08;;;;;;;;;;;21.20;40.60;;;;;;5072444;28;20057;-62
2022/03/02 08:46:34;;;;;;;;;;;21.20;40.80;;;;;;5075374;28;20364;-63
2022/03/02 08:48:59;;;;;;;;;;;21.30;40.70;;;;;;5071568;28;19956;-63
2022/03/02 08:51:25;;;;;;;;;;;21.30;40.80;;;;;;5071728;28;19920;-62
2022/03/02 08:53:52;;;;;;;;;;;21.30;40.90;;;;;;5078265;28;19916;-64
2022/03/02 08:56:18;;;;;;;;;;;21.30;40.80;;;;;;5081545;28;19912;-64
2022/03/02 08:58:43;;;;;;;;;;;21.30;40.70;;;;;;5075140;28;20385;-63
2022/03/02 09:01:10;;;;;;;;;;;21.40;40.80;;;;;;5081517;28;19924;-62
2022/03/02 09:03:35;;;;;;;;;;;21.40;40.70;;;;;;5091799;28;19916;-62
2022/03/02 09:06:02;;;;;;;;;;;21.40;40.90;;;;;;5082284;28;19952;-62
2022/03/02 09:08:27;;;;;;;;;;;21.50;40.70;;;;;;5087296;28;19912;-62
2022/03/02 09:10:53;;;;;;;;;;;21.50;40.80;;;;;;5084581;28;20437;-62
2022/03/02 09:13:18;;;;;;;;;;;21.50;40.70;;;;;;5084958;28;20289;-62
2022/03/02 09:15:44;;;;;;;;;;;21.50;40.70;;;;;;5079272;28;20010;-62
2022/03/02 09:18:10;;;;;;;;;;;21.50;40.60;;;;;;5085258;28;19992;-62
2022/03/02 09:20:35;;;;;;;;;;;21.60;40.70;;;;;;5086801;28;20391;-62
2022/03/02 09:23:01;;;;;;;;;;;21.60;40.70;;;;;;5088339;28;19981;-62
2022/03/02 09:25:27;;;;;;;;;;;21.70;40.70;;;;;;5091371;28;19909;-63
2022/03/02 09:27:52;;;;;;;;;;;21.70;40.60;;;;;;5075395;28;19913;-63
2022/03/02 09:30:18;;;;;;;;;;;21.70;40.70;;;;;;5085220;28;19921;-63
2022/03/02 09:32:44;;;;;;;;;;;21.70;40.50;;;;;;5085283;28;19917;-63
2022/03/02 09:35:13;;;;;;;;;;;21.70;40.60;;;;;;5075682;28;19916;-63
2022/03/02 09:37:40;;;;;;;;;;;21.80;40.70;;;;;;5073252;28;19908;-63
2022/03/02 09:40:06;;;;;;;;;;;21.80;40.70;;;;;;5072813;28;20459;-64
2022/03/02 09:42:32;;;;;;;;;;;21.80;40.70;;;;;;5073791;28;19951;-63
2022/03/02 09:45:07;;;;;;;;;;;21.90;40.60;;;;;;5077619;28;20003;-63
2022/03/02 09:47:37;;;;;;;;;;;22.00;40.60;;;;;;5074432;28;19954;-63
2022/03/02 09:50:03;;;;;;;;;;;22.10;40.30;;;;;;5082775;28;19912;-63
2022/03/02 09:52:28;;;;;;;;;;;22.20;40.20;;;;;;5077483;28;19913;-63
2022/03/02 09:54:54;;;;;;;;;;;22.30;40.10;;;;;;5078152;28;20011;-63
2022/03/02 09:57:21;;;;;;;;;;;22.30;40.00;;;;;;5079288;28;19974;-63
2022/03/02 09:59:48;;;;;;;;;;;22.30;40.00;;;;;;5079932;28;19920;-62
2022/03/02 10:02:13;;;;;;;;;;;22.30;40.10;;;;;;5058275;28;19925;-64
2022/03/02 10:04:40;;;;;;;;;;;22.30;40.20;;;;;;5093837;28;19923;-64
2022/03/02 10:09:52;;;;;;;;;;;22.20;40.20;;;;;;5073730;28;19935;-64
2022/03/02 10:12:20;;;;;;;;;;;22.20;40.20;;;;;;5078811;28;19913;-63
2022/03/02 10:14:47;;;;;;;;;;;22.20;40.30;;;;;;5082438;28;19927;-63
2022/03/02 10:17:13;;;;;;;;;;;22.20;40.30;;;;;;5074422;28;19908;-63
2022/03/02 10:19:43;;;;;;;;;;;22.20;40.40;;;;;;5084114;28;19924;-63
2022/03/02 10:22:29;;;;;;;;;;;22.20;40.40;;;;;;5073059;28;19958;-63
2022/03/02 10:24:56;;;;;;;;;;;22.20;40.50;;;;;;5052778;28;19920;-64
2022/03/02 10:27:29;;;;;;;;;;;22.20;40.60;;;;;;5083792;28;19921;-64
2022/03/02 10:30:05;;;;;;;;;;;22.20;40.50;;;;;;5086147;28;22201;-64
2022/03/02 10:32:32;;;;;;;;;;;22.20;40.60;;;;;;5083842;28;19923;-63
2022/03/02 10:35:00;;;;;;;;;;;22.20;40.50;;;;;;5081921;28;19908;-63
2022/03/02 10:37:29;;;;;;;;;;;22.30;40.60;;;;;;5083534;28;19912;-63
2022/03/02 10:39:56;;;;;;;;;;;22.20;40.50;;;;;;5091617;28;19971;-63
2022/03/02 10:42:22;;;;;;;;;;;22.30;40.70;;;;;;5083915;28;20406;-63
2022/03/02 10:44:51;;;;;;;;;;;22.30;40.60;;;;;;5075925;28;20380;-63
2022/03/02 10:47:17;;;;;;;;;;;22.30;40.60;;;;;;5080306;28;19913;-63
2022/03/02 10:49:42;;;;;;;;;;;22.30;40.60;;;;;;5088098;28;19914;-63
2022/03/02 10:52:08;;;;;;;;;;;22.30;40.60;;;;;;5085991;28;19912;-63
2022/03/02 10:54:33;;;;;;;;;;;22.30;40.50;;;;;;5084041;28;20293;-63
2022/03/02 10:56:59;;;;;;;;;;;22.30;40.50;;;;;;5079129;28;20315;-63
2022/03/02 10:59:25;;;;;;;;;;;22.40;40.60;;;;;;5084598;28;19909;-64
2022/03/02 11:01:51;;;;;;;;;;;22.40;40.60;;;;;;5081535;28;19928;-63
2022/03/02 11:04:21;;;;;;;;;;;22.40;40.60;;;;;;5082025;28;19912;-63
2022/03/02 11:06:46;;;;;;;;;;;22.40;40.60;;;;;;5078327;28;20019;-63
2022/03/02 11:09:12;;;;;;;;;;;22.40;40.50;;;;;;5081054;28;19983;-63
2022/03/02 11:11:37;;;;;;;;;;;22.40;40.60;;;;;;5078635;28;19919;-64
2022/03/02 11:14:04;;;;;;;;;;;22.50;40.60;;;;;;5080294;28;19927;-64
2022/03/02 11:16:29;;;;;;;;;;;22.50;40.60;;;;;;5085472;28;19964;-64
2022/03/02 11:18:55;;;;;;;;;;;22.50;40.40;;;;;;5067455;28;19920;-64
2022/03/02 11:21:23;;;;;;;;;;;22.50;40.40;;;;;;5109931;28;19920;-64
2022/03/02 11:23:49;;;;;;;;;;;22.60;40.50;;;;;;5092513;28;19912;-64
2022/03/02 11:26:16;;;;;;;;;;;22.60;40.40;;;;;;5094363;28;20023;-64
2022/03/02 11:28:45;;;;;;;;;;;22.60;40.40;;;;;;5101415;28;20006;-64
2022/03/02 11:31:11;;;;;;;;;;;22.70;40.50;;;;;;5093115;28;20384;-64
2022/03/02 11:33:36;;;;;;;;;;;22.70;40.40;;;;;;5086311;28;19962;-64
2022/03/02 11:36:07;;;;;;;;;;;22.70;40.40;;;;;;5092838;28;19912;-64
2022/03/02 11:38:33;;;;;;;;;;;22.70;40.30;;;;;;5089561;28;19908;-64
2022/03/02 11:40:59;;;;;;;;;;;22.70;40.40;;;;;;5071166;28;19919;-64
2022/03/02 11:43:28;;;;;;;;;;;22.80;40.40;;;;;;5092690;28;19909;-64
2022/03/02 11:45:58;;;;;;;;;;;22.80;40.40;;;;;;5101109;28;19916;-64
2022/03/02 11:48:27;;;;;;;;;;;22.80;40.20;;;;;;5075300;28;19955;-63
2022/03/02 11:51:06;;;;;;;;;;;22.80;40.30;;;;;;5085288;28;20364;-63
2022/03/02 11:53:35;;;;;;;;;;;22.70;40.40;;;;;;5078295;28;19916;-63
2022/03/02 11:56:01;;;;;;;;;;;22.70;40.60;;;;;;5076106;28;19923;-63
2022/03/02 11:58:26;;;;;;;;;;;22.50;40.60;;;;;;5090118;28;19912;-64
2022/03/02 12:00:52;;;;;;;;;;;22.40;40.80;;;;;;5094603;28;19916;-64
2022/03/02 12:03:18;;;;;;;;;;;22.30;40.90;;;;;;5104962;28;19963;-63
2022/03/02 12:05:43;;;;;;;;;;;22.30;41.10;;;;;;5090978;28;19953;-63
2022/03/02 12:08:09;;;;;;;;;;;22.20;41.30;;;;;;5085786;28;19957;-63
2022/03/02 12:10:36;;;;;;;;;;;22.10;41.40;;;;;;5085918;28;19912;-63
2022/03/02 12:13:01;;;;;;;;;;;21.90;41.50;;;;;;5084770;28;19961;-63
2022/03/02 12:15:40;;;;;;;;;;;21.80;41.70;;;;;;5082089;28;19912;-64
2022/03/02 12:18:06;;;;;;;;;;;21.70;41.90;;;;;;5082054;28;19916;-63
2022/03/02 12:20:34;;;;;;;;;;;21.60;42.00;;;;;;5092601;28;19923;-63
2022/03/02 12:22:59;;;;;;;;;;;21.50;42.20;;;;;;5093484;28;20007;-64
2022/03/02 12:25:25;;;;;;;;;;;21.40;42.40;;;;;;5087296;28;19982;-63
2022/03/02 12:28:04;;;;;;;;;;;21.30;42.60;;;;;;5090193;28;19917;-63
2022/03/02 12:30:33;;;;;;;;;;;21.30;42.60;;;;;;5091460;28;19908;-63
2022/03/02 12:32:58;;;;;;;;;;;21.30;42.60;;;;;;5090698;28;19968;-64
2022/03/02 12:35:24;;;;;;;;;;;21.40;42.70;;;;;;5087882;28;19924;-63
2022/03/02 12:37:50;;;;;;;;;;;21.50;42.60;;;;;;5076602;28;19915;-63
2022/03/02 12:40:16;;;;;;;;;;;21.60;42.40;;;;;;5087646;28;19916;-63
2022/03/02 12:42:42;;;;;;;;;;;21.70;42.20;;;;;;5074097;28;20343;-63
2022/03/02 12:45:08;;;;;;;;;;;21.80;42.00;;;;;;5078549;28;19939;-63
2022/03/02 12:47:33;;;;;;;;;;;21.90;41.90;;;;;;5074022;28;20357;-62
2022/03/02 12:49:59;;;;;;;;;;;22.10;41.70;;;;;;5083208;28;19923;-62
2022/03/02 12:52:26;;;;;;;;;;;22.20;41.60;;;;;;5085235;28;20420;-63
2022/03/02 12:54:52;;;;;;;;;;;22.30;41.50;;;;;;5081713;28;19909;-63
2022/03/02 12:57:19;;;;;;;;;;;22.40;41.40;;;;;;5087362;28;19920;-62
2022/03/02 12:59:44;;;;;;;;;;;22.50;41.20;;;;;;5084695;28;20264;-62
2022/03/02 13:02:10;;;;;;;;;;;22.50;41.10;;;;;;5085270;28;19969;-62
2022/03/02 13:04:42;;;;;;;;;;;22.60;41.10;;;;;;5084176;28;19960;-62
2022/03/02 13:07:19;;;;;;;;;;;22.60;41.00;;;;;;5079696;28;19917;-63
2022/03/02 13:09:49;;;;;;;;;;;22.70;41.00;;;;;;5083804;28;19912;-63
2022/03/02 13:12:48;;;;;;;;;;;22.80;40.70;;;;;;5083892;28;19912;-63
2022/03/02 13:15:24;;;;;;;;;;;22.90;40.80;;;;;;5082207;28;19958;-63
2022/03/02 13:18:08;;;;;;;;;;;23.00;40.90;;;;;;5083500;28;19927;-63
2022/03/02 13:20:37;;;;;;;;;;;23.00;40.90;;;;;;5083514;28;19931;-63
2022/03/02 13:23:20;;;;;;;;;;;23.00;40.90;;;;;;5084200;28;20140;-63
2022/03/02 13:25:54;;;;;;;;;;;22.90;40.90;;;;;;5081256;28;20331;-63
2022/03/02 13:28:22;;;;;;;;;;;22.90;40.90;;;;;;5079559;28;19954;-63
2022/03/02 13:31:08;;;;;;;;;;;23.00;40.90;;;;;;5077628;28;19912;-63
2022/03/02 13:33:55;;;;;;;;;;;23.10;40.90;;;;;;5078783;28;19919;-63
2022/03/02 13:36:39;;;;;;;;;;;23.20;40.70;;;;;;5078070;28;19924;-63
2022/03/02 13:39:14;;;;;;;;;;;23.50;40.40;;;;;;5075151;28;19923;-63
2022/03/02 13:41:58;;;;;;;;;;;23.80;39.90;;;;;;5081905;28;19961;-63
2022/03/02 13:44:27;;;;;;;;;;;24.00;39.60;;;;;;5086186;28;19912;-63
2022/03/02 13:47:08;;;;;;;;;;;24.30;39.40;;;;;;5086511;28;20387;-63
2022/03/02 13:52:18;;;;;;;;;;;24.60;39.00;;;;;;5087809;28;19939;-63
2022/03/02 13:54:43;;;;;;;;;;;24.70;38.80;;;;;;5083739;28;19912;-63
2022/03/02 13:57:18;;;;;;;;;;;24.80;38.70;;;;;;5083852;28;20407;-63
2022/03/02 13:59:44;;;;;;;;;;;24.90;38.60;;;;;;5089097;28;19912;-63
2022/03/02 14:02:10;;;;;;;;;;;24.90;38.50;;;;;;5078696;28;20470;-63
2022/03/02 14:04:41;;;;;;;;;;;25.10;38.60;;;;;;5070502;28;20247;-63
2022/03/02 14:07:06;;;;;;;;;;;25.10;38.40;;;;;;5088858;28;19916;-63
2022/03/02 14:09:32;;;;;;;;;;;25.10;38.30;;;;;;5077685;28;19919;-63
2022/03/02 14:11:58;;;;;;;;;;;25.20;38.30;;;;;;5077725;28;20011;-63
2022/03/02 14:14:23;;;;;;;;;;;25.20;38.20;;;;;;5085123;28;19912;-63
2022/03/02 14:16:53;;;;;;;;;;;25.30;38.10;;;;;;5088443;28;19923;-63
2022/03/02 14:19:18;;;;;;;;;;;25.30;38.00;;;;;;5086347;28;20416;-63